This is the latest recevied weather packets stored in our database for station/object AA7VG. If no packets are shown the sender has not sent any weather packets the latest 10 day(s).
| Time | Temp. | Humidity | Pressure | Rain* | Wind** | Luminosity | Snow |
|---|---|---|---|---|---|---|---|
| 1777565433 | 8.33° C | 50% | 1023.4 hPa | 0 mm | - | - | - |
| 1777565129 | 8.89° C | 49% | 1023.3 hPa | 0 mm | - | - | - |
| 1777564826 | 8.33° C | 50% | 1023.1 hPa | 0 mm | - | - | - |
| 1777564520 | 8.33° C | 51% | 1023.2 hPa | 0 mm | - | - | - |
| 1777564215 | 8.33° C | 50% | 1023.3 hPa | 0 mm | - | - | - |
| 1777563912 | 8.33° C | 51% | 1023.5 hPa | 0 mm | - | - | - |
| 1777563609 | 8.33° C | 50% | 1023.4 hPa | 0 mm | - | - | - |
| 1777563309 | 8.33° C | 50% | 1023.7 hPa | 0 mm | - | - | - |
| 1777563005 | 8.33° C | 51% | 1023.6 hPa | 0 mm | - | - | - |
| 1777562701 | 8.33° C | 51% | 1023.7 hPa | 0 mm | - | - | - |
| 1777562400 | 7.22° C | 55% | 1023.4 hPa | 0 mm | - | - | - |
| 1777562097 | 6.67° C | 55% | 1023.6 hPa | 0 mm | - | - | - |
| 1777561794 | 6.67° C | 55% | 1023.4 hPa | 0 mm | - | - | - |
| 1777561489 | 6.67° C | 56% | 1023.8 hPa | 0 mm | - | - | - |
| 1777561185 | 6.67° C | 57% | 1023.7 hPa | 0 mm | - | - | - |
| 1777560880 | 6.11° C | 57% | 1023.8 hPa | 0 mm | - | - | - |
| 1777560578 | 6.11° C | 59% | 1023.7 hPa | 0 mm | - | - | - |
| 1777560275 | 6.11° C | 60% | 1023.8 hPa | 0 mm | - | - | - |
| 1777559972 | 6.11° C | 57% | 1023.7 hPa | 0 mm | - | - | - |
| 1777559667 | 5.56° C | 58% | 1023.5 hPa | 0 mm | - | - | - |
| 1777559365 | 5.56° C | 59% | 1023.5 hPa | 0 mm | - | - | - |
| 1777559062 | 5° C | 60% | 1023.7 hPa | 0 mm | - | - | - |
| 1777558762 | 5° C | 61% | 1023.5 hPa | 0 mm | - | - | - |
| 1777558458 | 5.56° C | 58% | 1024.1 hPa | 0 mm | - | - | - |
| 1777558155 | 5.56° C | 59% | 1023.5 hPa | 0 mm | - | - | - |
* Rain latest hour (hover to see other rain measurements)
** Current wind speed in m/s (hover to see current wind gust speed)